Time;durP1;ratioP1;P1;durP2;ratioP2;P2;SDS_P1;SDS_P2;PMS_P1;PMS_P2;Temp;Humidity;BMP_temperature;BMP_pressure;BME280_temperature;BME280_humidity;BME280_pressure;Samples;Min_cycle;Max_cycle;Signal;HPM_P1;HPM_P2
2022/10/23 00:02:09;;;;;;;19.65;9.73;;;10.00;99.90;;;;;;5055940;28;20411;-72
2022/10/23 00:04:35;;;;;;;25.67;9.13;;;9.90;99.90;;;;;;5053359;28;20118;-71
2022/10/23 00:07:00;;;;;;;25.73;7.90;;;9.70;99.90;;;;;;5025127;28;20123;-71
2022/10/23 00:09:26;;;;;;;18.88;9.15;;;9.70;99.90;;;;;;5038334;28;20124;-71
2022/10/23 00:11:52;;;;;;;17.23;9.57;;;9.60;99.90;;;;;;5056658;28;20076;-72
2022/10/23 00:14:21;;;;;;;19.90;12.23;;;9.70;99.90;;;;;;5055941;28;20098;-72
2022/10/23 00:16:47;;;;;;;22.77;13.88;;;9.60;99.90;;;;;;5040338;28;20056;-72
2022/10/23 00:19:13;;;;;;;23.60;13.27;;;9.60;99.90;;;;;;5056034;28;20152;-71
2022/10/23 00:21:38;;;;;;;25.75;12.93;;;9.70;99.90;;;;;;5056685;28;20036;-71
2022/10/23 00:24:05;;;;;;;31.92;15.30;;;9.50;99.90;;;;;;5053860;28;20041;-71
2022/10/23 00:26:31;;;;;;;30.65;16.77;;;9.60;99.90;;;;;;5044433;28;20128;-72
2022/10/23 00:28:57;;;;;;;32.25;14.07;;;9.60;99.90;;;;;;5053837;28;20144;-72
2022/10/23 00:31:23;;;;;;;24.95;13.30;;;9.50;99.90;;;;;;5059789;28;20049;-72
2022/10/23 00:33:49;;;;;;;19.55;11.38;;;9.60;99.90;;;;;;5058285;28;20052;-72
2022/10/23 00:36:18;;;;;;;19.90;11.13;;;9.50;99.90;;;;;;5035419;28;20056;-72
2022/10/23 00:38:44;;;;;;;22.65;10.88;;;9.50;99.90;;;;;;5055222;28;20116;-71
2022/10/23 00:41:22;;;;;;;16.73;10.25;;;9.50;99.90;;;;;;5059760;28;20111;-71
2022/10/23 00:44:04;;;;;;;17.33;9.43;;;9.40;99.90;;;;;;5040447;28;20486;-71
2022/10/23 00:46:31;;;;;;;17.33;9.95;;;9.40;99.90;;;;;;5045243;28;20074;-72
2022/10/23 00:48:57;;;;;;;18.63;8.85;;;9.30;99.90;;;;;;5056156;28;20056;-72
2022/10/23 00:51:27;;;;;;;16.10;8.43;;;9.30;99.90;;;;;;5060955;28;20123;-71
2022/10/23 00:53:59;;;;;;;20.27;8.80;;;9.30;99.90;;;;;;5060650;28;20123;-71
2022/10/23 00:56:25;;;;;;;13.63;7.65;;;9.30;99.90;;;;;;5047589;28;20048;-72
2022/10/23 00:58:51;;;;;;;20.95;8.55;;;9.30;99.90;;;;;;5054498;28;20059;-71
2022/10/23 01:01:21;;;;;;;17.83;9.10;;;9.30;99.90;;;;;;5057447;28;20049;-72
2022/10/23 01:03:47;;;;;;;27.25;13.30;;;9.20;99.90;;;;;;5057471;28;20083;-71
2022/10/23 01:06:36;;;;;;;39.37;17.90;;;9.40;99.90;;;;;;5050096;28;20090;-72
2022/10/23 01:09:20;;;;;;;41.63;19.70;;;9.70;99.90;;;;;;5056056;28;20045;-71
2022/10/23 01:11:51;;;;;;;49.03;21.13;;;9.80;99.90;;;;;;5056888;28;20413;-71
2022/10/23 01:14:35;;;;;;;;;;;9.80;99.90;;;;;;5055686;28;20051;-71
2022/10/23 01:17:10;;;;;;;52.87;22.27;;;9.90;99.90;;;;;;5043484;28;19927;-71
2022/10/23 01:19:59;;;;;;;59.40;23.77;;;9.90;99.90;;;;;;5056672;28;20120;-71
2022/10/23 01:22:49;;;;;;;51.92;22.65;;;10.00;99.90;;;;;;5056528;28;20076;-71
2022/10/23 01:25:47;;;;;;;44.13;20.23;;;10.10;99.90;;;;;;5057655;28;20055;-71
2022/10/23 01:28:24;;;;;;;40.70;17.92;;;9.90;99.90;;;;;;5045066;28;20114;-71
2022/10/23 01:30:50;;;;;;;29.40;16.30;;;9.70;99.90;;;;;;5059279;28;20067;-71
2022/10/23 01:33:30;;;;;;;28.80;15.32;;;9.70;99.90;;;;;;5056934;28;20127;-71
2022/10/23 01:36:03;;;;;;;38.75;18.20;;;9.50;99.90;;;;;;5040947;28;20568;-72
2022/10/23 01:38:46;;;;;;;28.20;16.27;;;9.60;99.90;;;;;;5026145;28;20044;-71
2022/10/23 01:41:14;;;;;;;27.48;15.13;;;9.60;99.90;;;;;;5058439;28;20060;-72
2022/10/23 01:43:52;;;;;;;28.40;15.05;;;9.60;99.90;;;;;;5054791;28;20111;-72
2022/10/23 01:46:20;;;;;;;28.50;15.10;;;9.50;99.90;;;;;;5045014;28;20044;-72
2022/10/23 01:48:50;;;;;;;30.58;15.65;;;9.50;99.90;;;;;;5046938;28;20084;-72
2022/10/23 01:51:17;;;;;;;28.60;15.17;;;9.40;99.90;;;;;;5058704;28;20505;-71
2022/10/23 01:53:45;;;;;;;83.95;17.30;;;9.40;99.90;;;;;;5056026;28;20041;-71
2022/10/23 01:56:19;;;;;;;31.85;15.57;;;9.40;99.90;;;;;;5049864;28;20053;-72
2022/10/23 01:58:47;;;;;;;26.45;15.55;;;9.40;99.90;;;;;;5032752;28;20512;-71
2022/10/23 02:01:16;;;;;;;40.00;16.40;;;9.40;99.90;;;;;;5058077;28;20534;-71
2022/10/23 02:03:43;;;;;;;103.78;17.02;;;9.40;99.90;;;;;;5058979;28;20055;-71
2022/10/23 02:06:09;;;;;;;97.47;16.65;;;9.40;99.90;;;;;;5052642;28;20041;-72
2022/10/23 02:08:35;;;;;;;41.90;14.40;;;9.30;99.90;;;;;;5048531;28;20051;-72
2022/10/23 02:11:08;;;;;;;32.67;14.43;;;9.20;99.90;;;;;;5058087;28;20529;-71
2022/10/23 02:13:52;;;;;;;28.67;12.98;;;9.20;99.90;;;;;;5054852;28;20055;-72
2022/10/23 02:16:35;;;;;;;19.38;12.38;;;9.20;99.90;;;;;;5047677;28;20102;-72
2022/10/23 02:19:32;;;;;;;19.48;12.55;;;9.10;99.90;;;;;;5051079;28;20124;-71
2022/10/23 02:22:25;;;;;;;65.55;15.27;;;9.00;99.90;;;;;;5054613;28;20461;-72
2022/10/23 02:25:18;;;;;;;85.05;17.95;;;9.10;99.90;;;;;;5038437;28;20040;-71
2022/10/23 02:27:47;;;;;;;28.85;13.38;;;9.20;99.90;;;;;;5037716;28;20842;-71
2022/10/23 02:30:16;;;;;;;44.50;15.48;;;9.10;99.90;;;;;;5056323;28;20065;-71
2022/10/23 02:32:48;;;;;;;269.17;29.42;;;9.10;99.90;;;;;;5056389;28;20045;-72
2022/10/23 02:35:15;;;;;;;350.40;28.55;;;9.10;99.90;;;;;;5056762;28;20128;-72
2022/10/23 02:37:41;;;;;;;363.17;32.85;;;9.20;99.90;;;;;;5042921;28;20052;-71
2022/10/23 02:40:08;;;;;;;50.90;17.10;;;9.20;99.90;;;;;;5057347;28;20045;-71
2022/10/23 02:43:02;;;;;;;39.07;14.53;;;9.20;99.90;;;;;;5056152;28;20131;-72
2022/10/23 02:45:34;;;;;;;23.20;14.37;;;9.10;99.90;;;;;;5052284;28;20390;-71
2022/10/23 02:48:16;;;;;;;54.10;14.30;;;8.90;99.90;;;;;;5032657;28;20045;-71
2022/10/23 02:50:50;;;;;;;88.80;17.48;;;9.10;99.90;;;;;;5071273;28;20064;-71
2022/10/23 02:53:40;;;;;;;196.10;25.37;;;9.10;99.90;;;;;;5055209;28;20048;-72
2022/10/23 02:56:21;;;;;;;265.03;27.00;;;9.20;99.90;;;;;;5053663;28;20056;-72
2022/10/23 02:58:55;;;;;;;292.52;31.60;;;9.20;99.90;;;;;;5033664;28;20515;-71
2022/10/23 03:01:27;;;;;;;136.13;17.97;;;9.20;99.90;;;;;;5055126;28;20064;-72
2022/10/23 03:03:56;;;;;;;163.97;25.93;;;9.10;99.90;;;;;;5054442;28;20049;-72
2022/10/23 03:06:23;;;;;;;208.07;32.27;;;9.20;99.90;;;;;;5043640;28;20041;-72
2022/10/23 03:09:01;;;;;;;122.57;21.17;;;9.10;99.90;;;;;;5052744;28;20052;-72
2022/10/23 03:11:27;;;;;;;220.73;24.20;;;9.20;99.90;;;;;;5057178;28;20403;-72
2022/10/23 03:13:52;;;;;;;74.97;22.07;;;9.10;99.90;;;;;;5040599;28;20095;-72
2022/10/23 03:16:18;;;;;;;114.53;25.60;;;9.10;99.90;;;;;;5046185;28;20521;-72
2022/10/23 03:18:43;;;;;;;46.93;16.80;;;9.20;99.90;;;;;;5053118;28;20154;-72
2022/10/23 03:21:09;;;;;;;51.10;19.83;;;9.10;99.90;;;;;;5058729;28;20040;-71
2022/10/23 03:23:35;;;;;;;23.48;14.15;;;9.10;99.90;;;;;;5056910;28;20046;-72
2022/10/23 03:26:00;;;;;;;20.38;13.27;;;8.90;99.90;;;;;;5053820;28;20254;-72
2022/10/23 03:28:26;;;;;;;29.35;16.75;;;9.00;99.90;;;;;;5040023;28;20047;-71
2022/10/23 03:30:52;;;;;;;60.03;24.38;;;8.90;99.90;;;;;;5058663;28;20041;-71
2022/10/23 03:33:17;;;;;;;42.17;21.63;;;9.00;99.90;;;;;;5054636;28;20122;-72
2022/10/23 03:35:43;;;;;;;65.53;27.50;;;9.20;99.90;;;;;;5057079;28;20040;-71
2022/10/23 03:38:09;;;;;;;43.70;23.00;;;9.40;99.90;;;;;;5041279;28;20060;-72
2022/10/23 03:40:34;;;;;;;59.83;25.97;;;9.40;99.90;;;;;;5056962;28;20087;-72
2022/10/23 03:43:00;;;;;;;69.07;28.67;;;9.60;99.90;;;;;;5053212;28;20041;-72
2022/10/23 03:45:26;;;;;;;65.90;28.00;;;9.60;99.90;;;;;;5056470;28;20051;-72
2022/10/23 03:47:51;;;;;;;50.50;24.10;;;9.60;99.90;;;;;;5036630;28;20049;-71
2022/10/23 03:50:18;;;;;;;46.42;23.50;;;9.60;99.90;;;;;;5057301;28;20091;-72
2022/10/23 03:52:44;;;;;;;41.05;22.48;;;9.60;99.90;;;;;;5055479;28;20072;-72
2022/10/23 03:55:11;;;;;;;40.70;21.60;;;9.50;99.90;;;;;;5057974;28;20471;-72
2022/10/23 03:57:37;;;;;;;44.90;22.42;;;9.50;99.90;;;;;;5039009;28;20051;-72
2022/10/23 04:00:05;;;;;;;58.20;24.83;;;9.60;99.90;;;;;;5056425;28;20044;-72
2022/10/23 04:02:30;;;;;;;46.75;22.48;;;9.70;99.90;;;;;;5056327;28;20451;-71
2022/10/23 04:04:56;;;;;;;36.40;19.85;;;9.60;99.90;;;;;;5057062;28;20049;-71
2022/10/23 04:07:22;;;;;;;47.42;21.38;;;9.40;99.90;;;;;;5042134;28;20040;-72
2022/10/23 04:09:47;;;;;;;39.67;20.08;;;9.50;99.90;;;;;;5056045;28;20075;-72
2022/10/23 04:12:13;;;;;;;34.13;18.42;;;9.40;99.90;;;;;;5054294;28;20062;-72
2022/10/23 04:14:39;;;;;;;40.33;20.70;;;9.40;99.90;;;;;;5058712;28;20384;-72
2022/10/23 04:17:04;;;;;;;41.93;21.83;;;9.50;99.90;;;;;;5034049;28;20140;-73
2022/10/23 04:19:30;;;;;;;38.92;21.25;;;9.50;99.90;;;;;;5049985;28;20045;-72
2022/10/23 04:21:56;;;;;;;36.57;19.00;;;9.50;99.90;;;;;;5063553;28;20052;-72
2022/10/23 04:24:23;;;;;;;36.10;18.75;;;9.40;99.90;;;;;;5059560;28;20053;-72
2022/10/23 04:26:49;;;;;;;38.53;19.87;;;9.40;99.90;;;;;;5048753;28;20045;-72
2022/10/23 04:29:15;;;;;;;33.13;18.40;;;9.40;99.90;;;;;;5047635;28;20053;-72
2022/10/23 04:31:41;;;;;;;28.83;17.48;;;9.60;99.90;;;;;;5050918;28;20399;-72
2022/10/23 04:34:07;;;;;;;27.50;14.43;;;9.40;99.90;;;;;;5056124;28;20036;-72
2022/10/23 04:36:32;;;;;;;23.37;14.37;;;9.40;99.90;;;;;;5043887;28;20036;-72
2022/10/23 04:38:58;;;;;;;29.57;15.73;;;9.30;99.90;;;;;;5053903;28;20048;-72
2022/10/23 04:41:24;;;;;;;27.88;15.75;;;9.30;99.90;;;;;;5055798;28;20060;-72
2022/10/23 04:43:49;;;;;;;22.83;13.82;;;9.20;99.90;;;;;;5038007;28;20053;-72
2022/10/23 04:46:15;;;;;;;36.13;17.13;;;9.30;99.90;;;;;;5047570;28;20052;-73
2022/10/23 04:48:41;;;;;;;27.08;15.35;;;9.20;99.90;;;;;;5027777;28;20046;-72
2022/10/23 04:51:07;;;;;;;46.03;20.88;;;9.10;99.90;;;;;;5056971;28;20132;-72
2022/10/23 04:53:33;;;;;;;32.42;18.08;;;9.30;99.90;;;;;;5055757;28;20079;-72
2022/10/23 04:55:59;;;;;;;28.42;17.02;;;9.20;99.90;;;;;;5058277;28;20094;-72
2022/10/23 04:58:26;;;;;;;34.63;18.43;;;9.30;99.90;;;;;;5040296;28;20429;-72
2022/10/23 05:00:53;;;;;;;35.40;18.85;;;9.10;99.90;;;;;;5055258;28;20651;-72
2022/10/23 05:03:19;;;;;;;26.95;16.00;;;9.20;99.90;;;;;;5054827;28;20033;-72
2022/10/23 05:05:45;;;;;;;27.47;16.63;;;9.10;99.90;;;;;;5058019;28;20066;-72
2022/10/23 05:08:10;;;;;;;36.33;17.93;;;9.30;99.90;;;;;;5039556;28;20488;-72
2022/10/23 05:10:36;;;;;;;33.10;17.10;;;9.20;99.90;;;;;;5054369;28;20053;-72
2022/10/23 05:13:03;;;;;;;41.83;19.27;;;9.20;99.90;;;;;;5038249;28;20044;-72
2022/10/23 05:15:28;;;;;;;34.03;17.85;;;9.10;99.90;;;;;;5042480;28;20127;-72
2022/10/23 05:18:03;;;;;;;31.65;16.90;;;9.30;99.90;;;;;;5042812;28;20182;-72
2022/10/23 05:20:32;;;;;;;48.17;15.63;;;9.30;99.90;;;;;;5057278;28;20060;-72
2022/10/23 05:22:59;;;;;;;26.58;15.55;;;9.10;99.90;;;;;;5060765;28;20041;-72
2022/10/23 05:25:25;;;;;;;38.83;18.63;;;9.00;99.90;;;;;;5055801;28;20040;-72
2022/10/23 05:27:51;;;;;;;43.67;20.38;;;9.20;99.90;;;;;;5043057;28;20044;-72
2022/10/23 05:30:17;;;;;;;41.00;20.80;;;9.30;99.90;;;;;;5059128;28;20521;-72
2022/10/23 05:32:43;;;;;;;37.30;21.10;;;9.30;99.90;;;;;;5057002;28;20036;-72
2022/10/23 05:35:13;;;;;;;45.57;23.23;;;9.40;99.90;;;;;;5059836;28;20049;-72
2022/10/23 05:37:42;;;;;;;39.45;22.83;;;9.30;99.90;;;;;;5042193;28;20809;-72
2022/10/23 05:40:08;;;;;;;49.05;24.77;;;9.50;99.90;;;;;;5057579;28;20044;-72
2022/10/23 05:42:34;;;;;;;45.20;24.83;;;9.50;99.90;;;;;;5038858;28;20084;-72
2022/10/23 05:44:59;;;;;;;54.60;26.43;;;9.70;99.90;;;;;;5045342;28;20585;-72
2022/10/23 05:47:25;;;;;;;53.92;25.23;;;9.50;99.90;;;;;;5025678;28;20049;-72
2022/10/23 05:49:51;;;;;;;39.15;23.73;;;9.60;99.90;;;;;;5025841;28;20518;-72
2022/10/23 05:52:19;;;;;;;42.77;24.07;;;9.60;99.90;;;;;;5040691;28;20060;-72
2022/10/23 05:54:44;;;;;;;56.70;26.27;;;9.50;99.90;;;;;;5043553;28;20033;-72
2022/10/23 05:57:10;;;;;;;43.17;24.25;;;9.50;99.90;;;;;;5029367;28;20064;-72
2022/10/23 05:59:36;;;;;;;44.53;25.40;;;9.40;99.90;;;;;;5045594;28;20132;-72
2022/10/23 06:02:01;;;;;;;45.83;24.27;;;9.50;99.90;;;;;;5043383;28;20431;-72
2022/10/23 06:04:27;;;;;;;47.95;24.80;;;9.60;99.90;;;;;;5026580;28;20579;-72
2022/10/23 06:06:53;;;;;;;40.33;23.13;;;9.60;99.90;;;;;;5013040;28;20133;-72
2022/10/23 06:09:18;;;;;;;43.30;22.83;;;9.40;99.90;;;;;;5044012;28;20041;-72
2022/10/23 06:11:44;;;;;;;45.87;23.60;;;9.40;99.90;;;;;;5043465;28;20053;-72
2022/10/23 06:14:10;;;;;;;41.37;21.53;;;9.40;99.90;;;;;;5027811;28;20041;-72
2022/10/23 06:16:35;;;;;;;44.50;24.10;;;9.40;99.90;;;;;;5015177;28;21022;-72
2022/10/23 06:19:01;;;;;;;49.47;24.23;;;9.40;99.90;;;;;;5009448;28;20396;-72
2022/10/23 06:21:27;;;;;;;51.47;27.87;;;9.40;99.90;;;;;;5016698;28;20053;-72
2022/10/23 06:23:54;;;;;;;48.73;24.03;;;9.50;99.90;;;;;;5024730;28;20120;-72
2022/10/23 06:26:19;;;;;;;39.27;21.37;;;9.40;99.90;;;;;;5035684;28;20421;-72
2022/10/23 06:28:45;;;;;;;47.00;23.33;;;9.40;99.90;;;;;;5040731;28;20710;-72
2022/10/23 06:31:13;;;;;;;42.63;22.93;;;9.30;99.90;;;;;;5046775;28;20048;-72
2022/10/23 06:33:40;;;;;;;46.47;26.67;;;9.40;99.90;;;;;;5045286;28;20045;-72
2022/10/23 06:36:09;;;;;;;56.90;28.80;;;9.40;99.90;;;;;;5035521;28;20087;-72
2022/10/23 06:38:38;;;;;;;52.57;26.57;;;9.40;99.90;;;;;;5032228;28;20049;-72
2022/10/23 06:41:07;;;;;;;56.77;27.60;;;9.50;99.90;;;;;;5042773;28;20041;-72
2022/10/23 06:43:33;;;;;;;51.53;27.67;;;9.50;99.90;;;;;;5027569;28;20041;-72
2022/10/23 06:46:03;;;;;;;53.10;26.80;;;9.60;99.90;;;;;;5011509;28;20512;-72
2022/10/23 06:48:29;;;;;;;56.40;25.93;;;9.60;99.90;;;;;;5020896;28;20072;-72
2022/10/23 06:50:55;;;;;;;47.88;24.38;;;9.50;99.90;;;;;;5043315;28;20064;-72
2022/10/23 06:53:23;;;;;;;63.63;26.97;;;9.60;99.90;;;;;;5045023;28;20037;-72
2022/10/23 06:55:50;;;;;;;56.40;26.97;;;9.60;99.90;;;;;;5044818;28;20060;-72
2022/10/23 06:58:16;;;;;;;55.25;26.63;;;9.60;99.90;;;;;;5028234;28;20040;-72
2022/10/23 07:00:43;;;;;;;61.00;27.77;;;9.70;99.90;;;;;;5046372;28;20049;-72
2022/10/23 07:03:09;;;;;;;56.00;28.33;;;9.70;99.90;;;;;;5043259;28;20551;-72
2022/10/23 07:05:35;;;;;;;47.20;25.70;;;9.80;99.90;;;;;;5044543;28;20472;-72
2022/10/23 07:08:03;;;;;;;59.23;28.27;;;9.70;99.90;;;;;;5028239;28;20637;-72
2022/10/23 07:10:28;;;;;;;53.73;29.27;;;9.90;99.90;;;;;;5044407;28;20502;-72
2022/10/23 07:12:59;;;;;;;49.87;28.27;;;10.00;99.90;;;;;;5039791;28;20051;-72
2022/10/23 07:15:26;;;;;;;47.75;27.95;;;10.10;99.90;;;;;;5042170;28;20047;-72
2022/10/23 07:17:52;;;;;;;51.43;28.13;;;10.00;99.90;;;;;;5029601;28;20499;-72
2022/10/23 07:20:17;;;;;;;62.33;29.55;;;10.10;99.90;;;;;;5037353;28;20045;-72
2022/10/23 07:22:48;;;;;;;53.72;29.35;;;10.20;99.90;;;;;;5042549;28;20728;-72
2022/10/23 07:25:14;;;;;;;62.42;29.40;;;10.20;99.90;;;;;;5045836;28;20708;-72
2022/10/23 07:27:40;;;;;;;53.90;27.30;;;10.30;99.90;;;;;;5028047;28;20045;-72
2022/10/23 07:30:06;;;;;;;54.13;28.50;;;10.40;99.90;;;;;;5044091;28;20384;-72
2022/10/23 07:32:32;;;;;;;52.65;28.58;;;10.40;99.90;;;;;;5044679;28;20663;-72
2022/10/23 07:34:57;;;;;;;51.30;27.45;;;10.50;99.90;;;;;;5027360;28;20132;-72
2022/10/23 07:37:23;;;;;;;50.28;28.13;;;10.50;99.90;;;;;;5024574;28;20479;-72
2022/10/23 07:39:49;;;;;;;53.15;27.67;;;10.50;99.90;;;;;;5027094;28;20049;-72
2022/10/23 07:42:14;;;;;;;54.67;26.83;;;10.60;99.90;;;;;;5042258;28;20073;-73
2022/10/23 07:44:40;;;;;;;49.45;26.10;;;10.60;99.90;;;;;;5045294;28;20420;-72
2022/10/23 07:47:06;;;;;;;48.15;25.15;;;10.60;99.90;;;;;;5026091;28;20076;-72
2022/10/23 07:49:31;;;;;;;47.35;25.17;;;10.70;99.90;;;;;;5042422;28;20068;-72
2022/10/23 07:51:57;;;;;;;51.85;26.23;;;10.70;99.90;;;;;;5043268;28;20048;-72
2022/10/23 07:54:23;;;;;;;48.25;26.17;;;10.80;99.90;;;;;;5044338;28;20094;-73
2022/10/23 07:56:49;;;;;;;52.65;25.20;;;10.90;99.90;;;;;;5028641;28;20132;-73
2022/10/23 07:59:14;;;;;;;48.80;23.88;;;11.00;99.90;;;;;;5025916;28;20520;-72
2022/10/23 08:01:41;;;;;;;42.42;25.23;;;10.90;99.90;;;;;;5043416;28;20126;-72
2022/10/23 08:04:09;;;;;;;52.40;28.02;;;11.10;99.90;;;;;;5041035;28;20048;-73
2022/10/23 08:06:35;;;;;;;61.15;30.05;;;11.10;99.90;;;;;;5015709;28;20059;-73
2022/10/23 08:09:01;;;;;;;54.72;29.98;;;11.20;99.90;;;;;;5021875;28;20053;-72
2022/10/23 08:11:29;;;;;;;48.17;28.00;;;11.20;99.90;;;;;;5022648;28;20052;-73
2022/10/23 08:13:57;;;;;;;56.10;29.08;;;11.30;99.90;;;;;;5021753;28;20558;-72
2022/10/23 08:16:23;;;;;;;46.45;26.70;;;11.40;99.90;;;;;;5014081;28;20037;-73
2022/10/23 08:18:50;;;;;;;47.75;25.27;;;11.50;99.90;;;;;;5025196;28;20459;-73
2022/10/23 08:21:16;;;;;;;43.85;23.63;;;11.50;99.90;;;;;;5029515;28;20052;-72
2022/10/23 08:23:43;;;;;;;37.65;22.23;;;11.50;99.90;;;;;;5023993;28;20156;-72
2022/10/23 08:26:09;;;;;;;39.58;21.55;;;11.50;99.90;;;;;;5021269;28;20099;-73
2022/10/23 08:28:35;;;;;;;36.90;21.40;;;11.60;99.90;;;;;;5024366;28;20037;-73
2022/10/23 08:31:11;;;;;;;39.45;20.23;;;11.60;99.90;;;;;;5025880;28;20059;-72
2022/10/23 08:33:37;;;;;;;35.67;21.38;;;11.70;99.90;;;;;;5028264;28;20156;-72
2022/10/23 08:36:03;;;;;;;36.50;21.00;;;11.70;99.90;;;;;;5027377;28;20400;-72
2022/10/23 08:38:29;;;;;;;34.35;19.38;;;11.70;99.90;;;;;;5018187;28;20064;-72
2022/10/23 08:40:54;;;;;;;30.35;18.20;;;11.80;99.90;;;;;;5026846;28;20056;-72
2022/10/23 08:43:34;;;;;;;34.58;18.80;;;11.70;99.90;;;;;;4993210;28;20087;-72
2022/10/23 08:46:15;;;;;;;36.83;19.33;;;11.80;99.90;;;;;;5025717;28;20068;-72
2022/10/23 08:48:49;;;;;;;32.75;18.73;;;11.80;99.90;;;;;;5029413;28;20049;-72
2022/10/23 08:51:33;;;;;;;31.98;18.67;;;12.00;99.90;;;;;;5032787;28;20519;-73
2022/10/23 08:54:22;;;;;;;31.35;18.27;;;12.00;99.90;;;;;;5017385;28;20052;-73
2022/10/23 08:56:59;;;;;;;31.25;17.67;;;12.10;99.90;;;;;;5015988;28;20075;-73
2022/10/23 08:59:33;;;;;;;31.20;17.88;;;12.20;99.90;;;;;;5041735;28;20757;-72
2022/10/23 09:02:47;;;;;;;31.75;16.95;;;12.20;99.90;;;;;;5032532;28;20053;-72
2022/10/23 09:05:32;;;;;;;29.05;17.35;;;12.20;99.90;;;;;;5038085;28;20059;-73
2022/10/23 09:08:10;;;;;;;34.33;17.05;;;12.30;99.90;;;;;;5011795;28;20485;-72
2022/10/23 09:10:50;;;;;;;30.10;19.55;;;12.50;99.90;;;;;;5047293;28;20381;-73
2022/10/23 09:13:28;;;;;;;30.58;17.60;;;12.60;99.90;;;;;;5041654;28;20041;-73
2022/10/23 09:16:02;;;;;;;25.95;16.77;;;12.70;99.90;;;;;;5027726;28;20069;-72
2022/10/23 09:18:29;;;;;;;28.50;17.27;;;12.80;99.90;;;;;;5018919;28;20044;-72
2022/10/23 09:20:56;;;;;;;26.15;15.80;;;12.80;99.90;;;;;;5043106;28;20152;-73
2022/10/23 09:23:23;;;;;;;23.45;15.05;;;12.80;99.90;;;;;;5030435;28;20132;-72
2022/10/23 09:25:54;;;;;;;26.27;15.48;;;12.90;99.90;;;;;;5030371;28;20049;-73
2022/10/23 09:28:40;;;;;;;27.25;16.48;;;13.10;99.90;;;;;;5011057;28;20073;-73
2022/10/23 09:31:08;;;;;;;25.88;15.60;;;13.00;99.90;;;;;;5028095;28;20045;-73
2022/10/23 09:33:35;;;;;;;19.83;14.80;;;13.10;99.90;;;;;;5032104;28;20492;-73
2022/10/23 09:36:12;;;;;;;25.92;16.73;;;13.10;99.90;;;;;;5027645;28;20076;-73
2022/10/23 09:39:03;;;;;;;28.02;17.30;;;13.40;99.90;;;;;;5022317;28;20547;-72
2022/10/23 09:41:37;;;;;;;30.67;17.77;;;13.40;99.90;;;;;;5027909;28;20073;-72
2022/10/23 09:44:07;;;;;;;23.33;15.48;;;13.50;99.90;;;;;;5043472;28;20077;-73
2022/10/23 09:46:45;;;;;;;26.08;13.75;;;13.50;99.90;;;;;;5013577;28;20053;-73
2022/10/23 09:49:23;;;;;;;20.65;12.20;;;13.40;99.90;;;;;;5031965;28;20605;-73
2022/10/23 09:52:24;;;;;;;24.33;13.65;;;13.40;99.90;;;;;;5029780;28;20119;-73
2022/10/23 09:54:54;;;;;;;22.15;13.23;;;13.50;99.90;;;;;;5028038;28;20061;-73
2022/10/23 09:57:26;;;;;;;24.00;13.48;;;13.60;99.90;;;;;;5010605;28;20045;-72
2022/10/23 10:00:14;;;;;;;28.40;13.93;;;13.60;99.90;;;;;;5044083;28;20606;-73
2022/10/23 10:02:41;;;;;;;22.00;11.90;;;13.70;99.90;;;;;;5027868;28;20041;-73
2022/10/23 10:05:29;;;;;;;16.58;10.95;;;13.70;99.90;;;;;;5025157;28;20053;-73
2022/10/23 10:07:57;;;;;;;19.33;10.07;;;13.70;99.90;;;;;;4992747;28;20061;-73
2022/10/23 10:10:27;;;;;;;16.30;10.85;;;13.80;99.90;;;;;;5010769;28;20797;-73
2022/10/23 10:12:58;;;;;;;14.70;9.82;;;13.90;99.90;;;;;;5028686;28;20041;-73
2022/10/23 10:15:36;;;;;;;15.38;9.85;;;13.90;99.90;;;;;;5026699;28;20055;-73
2022/10/23 10:18:16;;;;;;;18.10;10.02;;;13.90;99.90;;;;;;5011296;28;20478;-73
2022/10/23 10:21:17;;;;;;;16.33;10.02;;;13.90;99.90;;;;;;5028487;28;20044;-73
2022/10/23 10:23:54;;;;;;;19.27;10.55;;;14.00;99.90;;;;;;5032946;28;20864;-73
2022/10/23 10:26:50;;;;;;;18.40;10.52;;;14.00;99.90;;;;;;5017152;28;20412;-73
2022/10/23 10:29:37;;;;;;;16.60;9.43;;;14.20;99.90;;;;;;5016757;28;20077;-73
2022/10/23 10:32:23;;;;;;;14.93;9.23;;;14.30;99.90;;;;;;5028662;28;20089;-73
2022/10/23 10:35:26;;;;;;;14.40;9.30;;;14.30;99.90;;;;;;5026768;28;20042;-73
2022/10/23 10:38:16;;;;;;;17.15;10.15;;;14.30;99.90;;;;;;5010334;28;20053;-73
2022/10/23 10:41:06;;;;;;;17.17;10.35;;;14.40;99.90;;;;;;5024051;28;20045;-73
2022/10/23 10:43:45;;;;;;;15.55;9.35;;;14.50;99.90;;;;;;5030160;28;20493;-73
2022/10/23 10:46:19;;;;;;;18.58;7.80;;;14.50;99.90;;;;;;5018893;28;20057;-73
2022/10/23 10:49:09;;;;;;;14.43;7.35;;;14.50;99.90;;;;;;5030436;28;20119;-73
2022/10/23 10:51:59;;;;;;;16.20;7.40;;;14.60;99.90;;;;;;5035199;28;20511;-73
2022/10/23 10:54:53;;;;;;;12.02;6.80;;;14.70;99.90;;;;;;5027795;28;20417;-73
2022/10/23 10:57:35;;;;;;;13.65;7.20;;;14.70;99.90;;;;;;5030022;28;20055;-73
2022/10/23 11:00:16;;;;;;;15.45;7.28;;;14.70;99.90;;;;;;5044456;28;20371;-73
2022/10/23 11:02:47;;;;;;;11.07;5.88;;;14.80;99.90;;;;;;5043658;28;20037;-73
2022/10/23 11:05:32;;;;;;;12.37;6.70;;;14.80;99.90;;;;;;5036527;28;20069;-73
2022/10/23 11:08:37;;;;;;;11.63;6.68;;;14.80;99.90;;;;;;5012423;28;20370;-73
2022/10/23 11:11:17;;;;;;;12.98;6.68;;;14.90;99.90;;;;;;5013113;28;20598;-73
2022/10/23 11:13:44;;;;;;;12.80;6.40;;;15.00;99.90;;;;;;5025472;28;20041;-73
2022/10/23 11:16:16;;;;;;;10.27;5.68;;;15.00;99.90;;;;;;5005195;28;20443;-73
2022/10/23 11:18:52;;;;;;;10.80;6.53;;;14.90;99.90;;;;;;5019561;28;20041;-73
2022/10/23 11:21:41;;;;;;;10.35;6.38;;;15.00;99.90;;;;;;5039658;28;20049;-73
2022/10/23 11:24:31;;;;;;;14.00;5.97;;;15.00;99.90;;;;;;5024063;28;20599;-73
2022/10/23 11:27:24;;;;;;;16.55;6.22;;;15.00;99.90;;;;;;5012051;28;20515;-73
2022/10/23 11:30:19;;;;;;;9.10;5.60;;;15.00;99.90;;;;;;5026269;28;20052;-73
2022/10/23 11:33:07;;;;;;;13.32;5.95;;;15.10;99.90;;;;;;5023456;28;20068;-72
2022/10/23 11:36:06;;;;;;;11.15;5.60;;;15.10;99.90;;;;;;5025002;28;20571;-73
2022/10/23 11:38:37;;;;;;;10.02;6.20;;;15.10;99.90;;;;;;5013245;28;20834;-73
2022/10/23 11:41:24;;;;;;;11.25;6.30;;;15.20;99.90;;;;;;5027088;28;20479;-73
2022/10/23 11:44:04;;;;;;;13.63;6.15;;;15.20;99.90;;;;;;5027081;28;20102;-73
2022/10/23 11:46:35;;;;;;;10.23;5.40;;;15.20;99.90;;;;;;5014056;28;20047;-73
2022/10/23 11:49:04;;;;;;;9.15;5.13;;;15.20;99.90;;;;;;5026607;28;20436;-73
2022/10/23 11:51:33;;;;;;;13.70;5.40;;;15.30;99.90;;;;;;5027918;28;20053;-73
2022/10/23 11:54:06;;;;;;;10.18;5.70;;;15.30;99.90;;;;;;5022751;28;20049;-73
2022/10/23 11:56:33;;;;;;;11.55;6.25;;;15.30;99.90;;;;;;5012014;28;20163;-73
2022/10/23 11:59:16;;;;;;;13.15;6.07;;;15.30;99.90;;;;;;5026788;28;20164;-73
2022/10/23 12:01:44;;;;;;;13.57;5.88;;;15.40;99.90;;;;;;5036758;28;20146;-73
2022/10/23 12:04:12;;;;;;;14.90;7.22;;;15.40;99.90;;;;;;5037443;28;20041;-73
2022/10/23 12:06:47;;;;;;;12.82;5.95;;;15.40;99.90;;;;;;5026569;28;20580;-73
2022/10/23 12:09:31;;;;;;;9.98;5.80;;;15.40;99.90;;;;;;5039996;28;20045;-73
2022/10/23 12:12:06;;;;;;;11.07;5.40;;;15.40;99.90;;;;;;5034483;28;20049;-73
2022/10/23 12:14:34;;;;;;;12.60;5.32;;;15.30;99.90;;;;;;5031456;28;20052;-73
2022/10/23 12:17:00;;;;;;;12.07;5.07;;;15.30;99.90;;;;;;4988667;28;20041;-73
2022/10/23 12:19:28;;;;;;;10.10;5.40;;;15.30;99.90;;;;;;5039407;28;20056;-73
2022/10/23 12:21:58;;;;;;;11.52;4.65;;;15.30;99.90;;;;;;5037623;28;20099;-73
2022/10/23 12:24:23;;;;;;;10.38;4.70;;;15.30;99.90;;;;;;5042485;28;20825;-73
2022/10/23 12:27:19;;;;;;;13.77;5.00;;;15.20;99.90;;;;;;5030733;28;20131;-73
2022/10/23 12:29:45;;;;;;;9.80;5.45;;;15.30;99.90;;;;;;5035191;28;20088;-74
2022/10/23 12:32:13;;;;;;;13.23;5.68;;;15.20;99.90;;;;;;5043704;28;20499;-74
2022/10/23 12:35:06;;;;;;;12.35;5.25;;;15.30;99.90;;;;;;5027876;28;20048;-74
2022/10/23 12:37:54;;;;;;;9.77;5.40;;;15.30;99.90;;;;;;5016588;28;20054;-75
2022/10/23 12:40:19;;;;;;;13.25;6.30;;;15.30;99.90;;;;;;5044633;28;20041;-73
2022/10/23 12:42:54;;;;;;;12.48;6.40;;;15.30;99.90;;;;;;5039527;28;20103;-73
2022/10/23 12:45:31;;;;;;;13.25;5.85;;;15.30;99.90;;;;;;5026633;28;20057;-73
2022/10/23 12:47:57;;;;;;;9.93;4.72;;;15.30;99.90;;;;;;5010193;28;20857;-73
2022/10/23 12:50:29;;;;;;;11.90;5.20;;;15.30;99.90;;;;;;5044640;28;20152;-73
2022/10/23 12:52:59;;;;;;;11.20;5.32;;;15.30;99.90;;;;;;5022410;28;20119;-73
2022/10/23 12:55:28;;;;;;;11.20;5.60;;;15.30;99.90;;;;;;5023741;28;20048;-73
2022/10/23 12:57:54;;;;;;;13.48;6.53;;;15.40;99.90;;;;;;5026337;28;20507;-73
2022/10/23 13:00:22;;;;;;;12.63;4.97;;;15.40;99.90;;;;;;5027845;28;20049;-73